Airfield :







YOU CAN JOIN US ON...

 
LOGIN :

Register | Disclaimer

   EN    FR    IT 

 









Legend :    VFR   Marginal VFR   IFR   Intensive IFR   Very Intensive IFR
Visi :
Ceiling :
>= 8 km
>= 3000ft
5 to 8 km
1000 to 3000 ft
1500m to 5 km
500 to 1000 ft
800 to 1500m
200 to 500 ft
< 800m
< 200 ft
Symbols :   Thunderstorms  Fog  Heavy snow  Heavy precipitations  Wind > 20 kt






- Airport Elevation : 49 ft


KOWD - Norwood Memorial

CURRENT METAR :
  • 271253Z 24006KT 10SM CLR 22/16 A3022 RMK AO2 SLP234 T02220161

EXPIRED METARs :
  • 271153Z 21006KT 10SM CLR 20/16 A3023 RMK AO2 SLP236 T02000156 10200 20167 52008
  • 271125Z 21006KT 10SM SCT008 19/15 A3023 RMK AO2 T01890150
  • 271053Z 23006KT 10SM BKN007 18/15 A3022 RMK AO2 SLP234 T01780150
  • 270953Z AUTO 18004KT 10SM BKN006 17/15 A3021 RMK AO2 SLP230 T01670150

TAF N/A
KZBW FIR / North America



MET'MAP, your aeronautical weather chart ! - Copyright ORBIFLY December 2007 - Disclaimer

ORBIFLY MET'MAP TEAM :

Programming & Development : Alexandra Zaïnal
Concept & original design : Baudouin d'Aumeries
Assistance for programming : Marc-Olivier Méhu
Technical & hardware support : Manuel Goepfert

Contact : metmap@orbifly.com




SOURCES & CREDITS :

   NOAA